Terminal Aerodrome Forecast
Issued by NWS

Home | Current Version | Previous Version | Text Only | Print | Product List | Glossary Off
Versions: 1 2 3 4 5 6 7 8 9 10 11 12 13 14 15 16 17

434
FTUS43 KTOP 152320
TAFMHK
TAF
KMHK 152320Z 1600/1624 23010KT P6SM SKC
     FM160200 21007KT P6SM SKC WS015/24040KT
     FM161300 21010KT P6SM SKC=

USA.gov is the U.S. government's official web portal to all federal, state and local government web resources and services.